createdAt,value
2023-05-15T00:01:21.803Z,53.65
2023-05-15T00:04:08.684Z,53.75
2023-05-15T00:06:55.566Z,53.64
2023-05-15T00:09:42.377Z,53.86
2023-05-15T00:12:29.506Z,53.82
2023-05-15T00:15:16.381Z,54.01
2023-05-15T00:18:03.242Z,53.49
2023-05-15T00:20:50.139Z,54.24
2023-05-15T00:23:36.982Z,53.96
2023-05-15T00:26:24.251Z,54.08
2023-05-15T00:29:11.173Z,53.76
2023-05-15T00:31:58.094Z,54.13
2023-05-15T00:34:45.059Z,54.14
2023-05-15T00:37:31.963Z,54.21
2023-05-15T00:40:22.323Z,54.15
2023-05-15T00:43:10.247Z,54.03
2023-05-15T00:45:57.911Z,54.23
2023-05-15T00:48:45.317Z,54.10
2023-05-15T00:51:32.199Z,53.85
2023-05-15T00:54:19.174Z,54.33
2023-05-15T00:57:08.726Z,53.92
2023-05-15T00:59:57.174Z,54.48
2023-05-15T01:02:44.352Z,54.34
2023-05-15T01:05:31.252Z,53.92
2023-05-15T01:08:39.047Z,54.11
2023-05-15T01:11:28.181Z,54.15
2023-05-15T01:14:15.005Z,54.54
2023-05-15T01:17:01.821Z,54.65
2023-05-15T01:19:50.913Z,54.48
2023-05-15T01:22:42.129Z,54.78
2023-05-15T01:25:44.146Z,54.33
2023-05-15T01:28:32.513Z,54.31
2023-05-15T01:31:20.714Z,54.09
2023-05-15T01:34:10.111Z,54.66
2023-05-15T01:37:00.344Z,54.76
2023-05-15T01:39:50.181Z,54.32
2023-05-15T01:42:39.670Z,54.56
2023-05-15T01:45:28.340Z,54.83
2023-05-15T01:48:15.654Z,54.85
2023-05-15T01:51:05.040Z,54.98
2023-05-15T01:53:52.854Z,54.76
2023-05-15T01:56:40.666Z,54.69
2023-05-15T01:59:29.294Z,55.15
2023-05-15T02:02:16.313Z,55.33
2023-05-15T02:05:04.271Z,55.53
2023-05-15T02:07:51.509Z,55.04
2023-05-15T02:10:38.988Z,55.57
2023-05-15T02:13:26.634Z,55.25
2023-05-15T02:16:13.601Z,55.46
2023-05-15T02:19:00.563Z,55.87
2023-05-15T02:21:47.605Z,55.93
2023-05-15T02:24:34.418Z,55.59
2023-05-15T02:27:28.545Z,55.93
2023-05-15T02:30:43.569Z,55.50
2023-05-15T02:33:46.378Z,55.68
2023-05-15T02:36:33.994Z,55.42
2023-05-15T02:39:23.523Z,55.44
2023-05-15T02:42:11.275Z,55.79
2023-05-15T02:44:58.462Z,56.22
2023-05-15T02:47:45.663Z,55.77
2023-05-15T02:50:32.616Z,55.98
2023-05-15T02:53:19.414Z,56.19
2023-05-15T02:56:06.650Z,56.27
2023-05-15T02:58:53.552Z,56.31
2023-05-15T03:01:40.420Z,55.86
2023-05-15T03:04:27.325Z,56.24
2023-05-15T03:07:14.520Z,56.16
2023-05-15T03:10:01.420Z,56.09
2023-05-15T03:12:48.242Z,56.18
2023-05-15T03:15:35.093Z,56.58
2023-05-15T03:18:22.053Z,56.27
2023-05-15T03:21:08.883Z,56.22
2023-05-15T03:23:56.208Z,56.13
2023-05-15T03:26:44.093Z,56.30
2023-05-15T03:29:30.981Z,56.62
2023-05-15T03:32:18.034Z,56.85
2023-05-15T03:35:05.364Z,56.56
2023-05-15T03:37:52.187Z,56.18
2023-05-15T03:40:39.674Z,56.80
2023-05-15T03:43:26.627Z,56.27
2023-05-15T03:46:13.545Z,56.62
2023-05-15T03:49:00.636Z,56.71
2023-05-15T03:51:47.497Z,56.40
2023-05-15T03:54:34.720Z,56.36
2023-05-15T03:57:21.609Z,57.34
2023-05-15T04:00:12.126Z,57.11
2023-05-15T04:02:59.032Z,56.88
2023-05-15T04:05:49.953Z,56.79
2023-05-15T04:08:37.537Z,57.57
2023-05-15T04:11:26.246Z,57.20
2023-05-15T04:14:13.502Z,57.43
2023-05-15T04:17:00.385Z,57.74
2023-05-15T04:19:47.955Z,57.49
2023-05-15T04:22:34.839Z,57.58
2023-05-15T04:25:21.804Z,57.06
2023-05-15T04:28:08.663Z,57.09
2023-05-15T04:30:55.510Z,57.70
2023-05-15T04:33:42.860Z,57.72
2023-05-15T04:36:29.702Z,57.62
2023-05-15T04:39:16.553Z,57.31
2023-05-15T04:42:03.790Z,57.80
2023-05-15T04:44:51.087Z,57.75
2023-05-15T04:47:38.070Z,57.42
2023-05-15T04:50:25.275Z,57.40
2023-05-15T04:53:12.312Z,57.82
2023-05-15T04:55:59.117Z,57.77
2023-05-15T04:58:45.928Z,57.44
2023-05-15T05:01:32.846Z,57.91
2023-05-15T05:04:20.232Z,57.56
2023-05-15T05:07:07.121Z,57.87
2023-05-15T05:09:53.907Z,57.85
2023-05-15T05:12:40.733Z,57.86
2023-05-15T05:15:27.738Z,57.60
2023-05-15T05:18:14.654Z,58.33
2023-05-15T05:21:02.449Z,57.59
2023-05-15T05:23:49.253Z,57.72
2023-05-15T05:26:36.144Z,58.48
2023-05-15T05:29:22.980Z,58.18
2023-05-15T05:32:09.878Z,58.47
2023-05-15T05:34:56.762Z,58.49
2023-05-15T05:37:43.573Z,58.59
2023-05-15T05:40:30.543Z,58.71
2023-05-15T05:43:17.370Z,58.48
2023-05-15T05:46:04.191Z,59.17
2023-05-15T05:48:51.039Z,59.36
2023-05-15T05:51:38.656Z,59.77
2023-05-15T05:54:28.528Z,59.98
2023-05-15T05:57:15.532Z,60.58
2023-05-15T06:00:02.803Z,60.57
2023-05-15T06:02:53.166Z,60.28
2023-05-15T06:05:40.109Z,60.58
2023-05-15T06:08:28.902Z,59.85
2023-05-15T06:11:16.013Z,60.54
2023-05-15T06:14:02.891Z,59.97
2023-05-15T06:16:50.352Z,60.60
2023-05-15T06:19:37.295Z,60.62
2023-05-15T06:22:24.263Z,60.95
2023-05-15T06:25:13.802Z,60.88
2023-05-15T06:28:01.150Z,60.69
2023-05-15T06:30:48.111Z,61.00
2023-05-15T06:33:34.898Z,60.43
2023-05-15T06:36:21.770Z,60.93
2023-05-15T06:39:10.817Z,61.14
2023-05-15T06:42:01.260Z,61.05
2023-05-15T06:44:49.587Z,60.93
2023-05-15T06:47:36.425Z,60.45
2023-05-15T06:50:23.293Z,60.57
2023-05-15T06:53:10.915Z,60.78
2023-05-15T06:55:58.551Z,60.22
2023-05-15T06:58:45.585Z,60.06
2023-05-15T07:01:32.499Z,60.08
2023-05-15T07:04:19.457Z,60.67
2023-05-15T07:07:06.409Z,60.24
2023-05-15T07:09:53.267Z,60.32
2023-05-15T07:12:40.073Z,59.94
2023-05-15T07:15:26.912Z,59.62
2023-05-15T07:18:13.822Z,60.43
2023-05-15T07:21:00.693Z,60.26
2023-05-15T07:23:47.521Z,60.16
2023-05-15T07:26:43.572Z,59.84
2023-05-15T07:29:33.678Z,59.65
2023-05-15T07:32:20.803Z,60.02
2023-05-15T07:35:07.941Z,60.10
2023-05-15T07:37:54.919Z,60.09
2023-05-15T07:40:41.814Z,59.68
2023-05-15T07:43:28.686Z,59.33
2023-05-15T07:46:15.630Z,59.32
2023-05-15T07:49:02.542Z,59.12
2023-05-15T07:51:49.424Z,59.11
2023-05-15T07:54:36.280Z,59.51
2023-05-15T07:57:23.140Z,59.62
2023-05-15T08:00:13.439Z,58.90
2023-05-15T08:03:00.670Z,59.04
2023-05-15T08:05:47.676Z,58.69
2023-05-15T08:08:34.545Z,58.40
2023-05-15T08:11:22.097Z,58.75
2023-05-15T08:14:09.917Z,58.54
2023-05-15T08:16:57.764Z,58.47
2023-05-15T08:19:44.614Z,58.28
2023-05-15T08:22:31.745Z,58.32
2023-05-15T08:25:18.693Z,58.16
2023-05-15T08:28:05.993Z,58.35
2023-05-15T08:30:52.983Z,57.71
2023-05-15T08:33:39.895Z,57.75
2023-05-15T08:36:26.840Z,58.04
2023-05-15T08:39:13.710Z,58.01
2023-05-15T08:42:19.245Z,57.83
2023-05-15T08:45:07.588Z,58.13
2023-05-15T08:47:55.093Z,57.93
2023-05-15T08:50:44.147Z,58.26
2023-05-15T08:53:31.088Z,57.99
2023-05-15T08:56:18.362Z,57.84
2023-05-15T08:59:05.228Z,58.33
2023-05-15T09:01:52.578Z,57.67
2023-05-15T09:04:39.429Z,58.45
2023-05-15T09:07:26.362Z,58.29
2023-05-15T09:10:13.917Z,58.23
2023-05-15T09:13:01.964Z,58.37
2023-05-15T09:15:48.893Z,58.09
2023-05-15T09:18:35.765Z,58.11
2023-05-15T09:21:22.819Z,58.40
2023-05-15T09:24:20.203Z,58.57
2023-05-15T09:27:08.158Z,58.48
2023-05-15T09:29:56.583Z,58.20
2023-05-15T09:32:43.774Z,58.53
2023-05-15T09:35:36.081Z,58.72
2023-05-15T09:38:22.965Z,58.68
2023-05-15T09:41:09.797Z,58.90
2023-05-15T09:43:57.285Z,58.74
2023-05-15T09:46:44.138Z,59.04
2023-05-15T09:49:33.327Z,59.06
2023-05-15T09:52:20.480Z,58.83
2023-05-15T09:55:07.718Z,58.80
2023-05-15T09:58:08.460Z,59.73
2023-05-15T10:00:55.737Z,59.31
2023-05-15T10:03:43.701Z,59.57
2023-05-15T10:06:42.968Z,59.56
2023-05-15T10:09:31.564Z,59.31
2023-05-15T10:12:18.433Z,59.49
2023-05-15T10:15:05.753Z,59.95
2023-05-15T10:17:53.290Z,59.89
2023-05-15T10:20:40.151Z,59.77
2023-05-15T10:23:27.366Z,59.94
2023-05-15T10:26:36.010Z,59.52
2023-05-15T10:29:25.364Z,59.53
2023-05-15T10:32:13.315Z,59.51
2023-05-15T10:35:00.400Z,59.61
2023-05-15T10:37:48.338Z,59.83
2023-05-15T10:40:37.725Z,59.61
2023-05-15T10:43:24.585Z,59.41
2023-05-15T10:46:11.638Z,59.36
2023-05-15T10:49:00.493Z,59.52
2023-05-15T10:51:47.305Z,59.40
2023-05-15T10:54:34.424Z,59.10
2023-05-15T10:57:22.119Z,58.93
2023-05-15T11:00:33.710Z,58.98
2023-05-15T11:03:48.034Z,59.08
2023-05-15T11:06:50.497Z,59.03
2023-05-15T11:09:38.002Z,58.83
2023-05-15T11:12:24.942Z,58.90
2023-05-15T11:15:12.315Z,58.83
2023-05-15T11:18:04.409Z,58.87
2023-05-15T11:20:53.996Z,58.76
2023-05-15T11:23:41.493Z,58.72
2023-05-15T11:26:34.330Z,58.60
2023-05-15T11:29:23.257Z,58.54
2023-05-15T11:32:28.753Z,58.54
2023-05-15T11:35:32.974Z,58.37
2023-05-15T11:38:24.927Z,58.33
2023-05-15T11:41:19.884Z,58.36
2023-05-15T11:44:06.879Z,58.48
2023-05-15T11:46:53.808Z,58.51
2023-05-15T11:49:40.775Z,58.54
2023-05-15T11:52:27.977Z,58.72
2023-05-15T11:55:15.788Z,58.84
2023-05-15T11:58:04.385Z,58.73
2023-05-15T12:00:53.448Z,58.75
2023-05-15T12:03:40.516Z,59.24
2023-05-15T12:06:27.469Z,58.97
2023-05-15T12:09:16.154Z,59.46
2023-05-15T12:12:04.450Z,59.01
2023-05-15T12:14:51.286Z,59.19
2023-05-15T12:17:39.470Z,59.47
2023-05-15T12:20:26.512Z,59.15
2023-05-15T12:23:17.342Z,59.44
2023-05-15T12:26:04.197Z,59.39
2023-05-15T12:28:51.617Z,59.06
2023-05-15T12:31:38.648Z,59.45
2023-05-15T12:34:26.102Z,59.33
2023-05-15T12:37:14.048Z,59.30
2023-05-15T12:40:02.685Z,59.25
2023-05-15T12:42:56.274Z,59.63
2023-05-15T12:45:43.221Z,59.44
2023-05-15T12:48:32.277Z,59.28
2023-05-15T12:51:22.488Z,59.48
2023-05-15T12:54:19.990Z,59.16
2023-05-15T12:57:08.570Z,59.46
2023-05-15T12:59:55.390Z,59.36
2023-05-15T13:02:46.041Z,59.20
2023-05-15T13:05:34.235Z,59.14
2023-05-15T13:08:21.049Z,59.22
2023-05-15T13:11:12.250Z,59.16
2023-05-15T13:13:59.115Z,59.14
2023-05-15T13:16:47.048Z,58.86
2023-05-15T13:19:34.000Z,58.92
2023-05-15T13:22:20.791Z,59.51
2023-05-15T13:25:08.801Z,59.05
2023-05-15T13:27:58.322Z,58.68
2023-05-15T13:30:45.703Z,58.72
2023-05-15T13:33:33.983Z,58.53
2023-05-15T13:36:25.895Z,58.59
2023-05-15T13:39:12.731Z,58.48
2023-05-15T13:41:59.583Z,58.85
2023-05-15T13:44:46.410Z,58.73
2023-05-15T13:47:33.350Z,58.71
2023-05-15T13:50:20.238Z,58.49
2023-05-15T13:53:07.538Z,58.25
2023-05-15T13:55:54.447Z,58.27
2023-05-15T13:58:42.420Z,57.95
2023-05-15T14:01:29.343Z,58.15
2023-05-15T14:04:16.767Z,58.17
2023-05-15T14:07:03.716Z,58.30
2023-05-15T14:09:53.368Z,57.87
2023-05-15T14:12:40.367Z,58.23
2023-05-15T14:15:27.214Z,58.13
2023-05-15T14:18:14.050Z,57.78
2023-05-15T14:21:00.941Z,58.02
2023-05-15T14:23:47.749Z,57.94
2023-05-15T14:26:34.650Z,57.60
2023-05-15T14:29:21.519Z,57.67
2023-05-15T14:32:08.849Z,57.85
2023-05-15T14:34:59.826Z,57.33
2023-05-15T14:37:46.850Z,57.50
2023-05-15T14:40:34.034Z,57.69
2023-05-15T14:43:20.847Z,57.29
2023-05-15T14:46:09.209Z,57.57
2023-05-15T14:48:58.030Z,57.28
2023-05-15T14:51:44.884Z,57.04
2023-05-15T14:54:32.111Z,57.11
2023-05-15T14:57:20.418Z,57.23
2023-05-15T15:00:08.134Z,57.49
2023-05-15T15:02:55.071Z,57.37
2023-05-15T15:05:41.970Z,57.18
2023-05-15T15:08:28.775Z,57.26
2023-05-15T15:11:15.585Z,57.38
2023-05-15T15:14:03.868Z,57.38
2023-05-15T15:16:50.807Z,57.18
2023-05-15T15:19:37.690Z,57.10
2023-05-15T15:22:24.502Z,57.73
2023-05-15T15:25:11.539Z,57.35
2023-05-15T15:27:58.397Z,57.25
2023-05-15T15:30:45.459Z,57.25
2023-05-15T15:33:32.336Z,57.81
2023-05-15T15:36:19.178Z,57.66
2023-05-15T15:39:06.014Z,57.44
2023-05-15T15:41:52.925Z,57.47
2023-05-15T15:44:39.866Z,57.57
2023-05-15T15:47:27.168Z,57.88
2023-05-15T15:50:14.049Z,57.66
2023-05-15T15:53:00.927Z,57.62
2023-05-15T15:55:47.852Z,57.91
2023-05-15T15:58:34.721Z,57.45
2023-05-15T16:01:22.330Z,57.45
2023-05-15T16:04:09.312Z,57.51
2023-05-15T16:06:56.158Z,57.34
2023-05-15T16:09:43.101Z,57.56
2023-05-15T16:12:29.930Z,57.15
2023-05-15T16:18:07.758Z,57.27
2023-05-15T16:20:54.636Z,57.34
2023-05-15T16:23:41.570Z,57.40
2023-05-15T16:26:28.404Z,57.21
2023-05-15T16:29:15.233Z,57.08
2023-05-15T16:32:02.113Z,56.71
2023-05-15T16:34:48.940Z,57.28
2023-05-15T16:37:35.788Z,57.28
2023-05-15T16:40:22.619Z,56.66
2023-05-15T16:43:09.735Z,57.10
2023-05-15T16:45:56.681Z,56.81
2023-05-15T16:48:44.287Z,56.99
2023-05-15T16:51:31.598Z,57.10
2023-05-15T16:54:18.872Z,56.99
2023-05-15T16:57:06.360Z,56.76
2023-05-15T16:59:53.334Z,56.99
2023-05-15T17:02:41.813Z,56.80
2023-05-15T17:05:28.750Z,56.70
2023-05-15T17:08:15.591Z,57.18
2023-05-15T17:11:02.417Z,56.72
2023-05-15T17:13:49.238Z,57.09
2023-05-15T17:16:36.199Z,57.05
2023-05-15T17:19:23.054Z,57.04
2023-05-15T17:22:09.858Z,56.57
2023-05-15T17:24:56.746Z,56.99
2023-05-15T17:27:43.571Z,57.21
2023-05-15T17:30:30.490Z,56.94
2023-05-15T17:33:17.372Z,57.20
2023-05-15T17:36:04.512Z,57.06
2023-05-15T17:38:51.339Z,57.28
2023-05-15T17:41:38.173Z,57.26
2023-05-15T17:44:28.020Z,57.23
2023-05-15T17:47:14.859Z,57.35
2023-05-15T17:50:01.638Z,56.96
2023-05-15T17:52:48.518Z,57.39
2023-05-15T17:55:35.397Z,57.47
2023-05-15T17:58:22.296Z,57.25
2023-05-15T18:01:09.117Z,57.22
2023-05-15T18:03:56.224Z,57.21
2023-05-15T18:06:43.176Z,57.47
2023-05-15T18:09:30.021Z,57.48
2023-05-15T18:12:16.829Z,57.37
2023-05-15T18:15:03.844Z,57.22
2023-05-15T18:17:50.646Z,57.41
2023-05-15T18:20:37.549Z,57.26
2023-05-15T18:23:24.328Z,57.38
2023-05-15T18:26:11.146Z,57.41
2023-05-15T18:28:57.915Z,57.47
2023-05-15T18:31:45.134Z,57.30
2023-05-15T18:34:32.062Z,57.27
2023-05-15T18:37:19.045Z,57.60
2023-05-15T18:40:06.423Z,57.60
2023-05-15T18:42:56.981Z,57.36
2023-05-15T18:45:43.800Z,57.53
2023-05-15T18:48:30.688Z,57.39
2023-05-15T18:51:17.491Z,57.54
2023-05-15T18:54:04.302Z,57.43
2023-05-15T18:56:51.187Z,57.48
2023-05-15T18:59:38.012Z,57.26
2023-05-15T19:02:26.246Z,57.48
2023-05-15T19:05:13.670Z,57.45
2023-05-15T19:08:00.605Z,57.16
2023-05-15T19:10:48.354Z,57.25
2023-05-15T19:13:35.652Z,57.34
2023-05-15T19:16:26.901Z,57.39
2023-05-15T19:19:13.974Z,57.06
2023-05-15T19:22:01.001Z,56.96
2023-05-15T19:24:47.819Z,57.01
2023-05-15T19:27:34.854Z,56.76
2023-05-15T19:30:21.624Z,56.91
2023-05-15T19:33:08.558Z,56.88
2023-05-15T19:35:55.617Z,57.08
2023-05-15T19:38:42.439Z,56.82
2023-05-15T19:41:29.254Z,57.28
2023-05-15T19:44:16.221Z,57.00
2023-05-15T19:47:03.504Z,56.99
2023-05-15T19:49:50.341Z,57.13
2023-05-15T19:52:37.220Z,57.01
2023-05-15T19:55:24.140Z,57.18
2023-05-15T19:58:11.129Z,57.04
2023-05-15T20:00:58.154Z,57.14
2023-05-15T20:03:45.086Z,57.11
2023-05-15T20:06:31.998Z,56.78
2023-05-15T20:09:18.881Z,56.84
2023-05-15T20:12:06.371Z,56.89
2023-05-15T20:14:53.187Z,57.13
2023-05-15T20:17:41.291Z,56.89
2023-05-15T20:20:28.387Z,57.28
2023-05-15T20:23:15.440Z,56.98
2023-05-15T20:26:03.416Z,57.14
2023-05-15T20:28:50.343Z,57.13
2023-05-15T20:31:38.285Z,56.83
2023-05-15T20:34:25.358Z,57.28
2023-05-15T20:37:13.342Z,56.93
2023-05-15T20:40:00.283Z,57.20
2023-05-15T20:42:47.316Z,56.99
2023-05-15T20:45:34.366Z,57.11
2023-05-15T20:48:21.413Z,57.05
2023-05-15T20:51:08.218Z,57.26
2023-05-15T20:53:55.163Z,57.17
2023-05-15T20:56:41.978Z,57.14
2023-05-15T20:59:28.913Z,57.27
2023-05-15T21:02:16.094Z,57.09
2023-05-15T21:05:02.975Z,57.30
2023-05-15T21:07:49.960Z,57.29
2023-05-15T21:10:36.770Z,56.97
2023-05-15T21:13:23.568Z,57.53
2023-05-15T21:16:10.482Z,56.80
2023-05-15T21:18:57.437Z,57.20
2023-05-15T21:21:44.355Z,57.43
2023-05-15T21:24:31.238Z,57.23
2023-05-15T21:27:18.140Z,57.12
2023-05-15T21:30:05.967Z,57.42
2023-05-15T21:32:52.989Z,57.21
2023-05-15T21:35:39.880Z,57.29
2023-05-15T21:38:26.735Z,57.22
2023-05-15T21:41:13.546Z,57.23
2023-05-15T21:44:00.439Z,57.22
2023-05-15T21:46:47.366Z,57.08
2023-05-15T21:49:34.236Z,57.25
2023-05-15T21:52:21.660Z,57.35
2023-05-15T21:55:08.979Z,57.19
2023-05-15T21:57:55.842Z,57.03
2023-05-15T22:00:42.684Z,57.19
2023-05-15T22:03:29.666Z,57.15
2023-05-15T22:06:17.303Z,57.34
2023-05-15T22:09:04.206Z,57.21
2023-05-15T22:11:51.033Z,57.05
2023-05-15T22:14:44.199Z,57.15
2023-05-15T22:17:37.892Z,57.37
2023-05-15T22:20:25.128Z,57.36
2023-05-15T22:23:12.268Z,57.30
2023-05-15T22:25:59.095Z,56.71
2023-05-15T22:28:47.239Z,57.19
2023-05-15T22:31:34.086Z,57.21
2023-05-15T22:34:21.804Z,57.08
2023-05-15T22:37:08.571Z,56.71
2023-05-15T22:39:55.902Z,57.46
2023-05-15T22:42:42.723Z,57.17
2023-05-15T22:45:29.616Z,57.60
2023-05-15T22:48:16.469Z,57.45
2023-05-15T22:51:03.378Z,57.15
2023-05-15T22:53:50.236Z,57.49
2023-05-15T22:56:37.024Z,57.40
2023-05-15T22:59:23.895Z,56.97
2023-05-15T23:02:10.940Z,57.42
2023-05-15T23:04:57.872Z,57.35
2023-05-15T23:07:44.673Z,57.29
2023-05-15T23:10:31.504Z,57.62
2023-05-15T23:13:18.314Z,57.08
2023-05-15T23:16:05.823Z,57.47
2023-05-15T23:18:52.897Z,57.46
2023-05-15T23:21:39.849Z,57.09
2023-05-15T23:24:26.637Z,57.29
2023-05-15T23:27:13.518Z,57.07
2023-05-15T23:30:00.626Z,57.46
2023-05-15T23:32:47.550Z,57.10
2023-05-15T23:35:34.421Z,57.45
2023-05-15T23:38:23.353Z,57.07
2023-05-15T23:41:10.090Z,57.68
2023-05-15T23:43:56.933Z,57.42
2023-05-15T23:46:43.778Z,57.43
2023-05-15T23:49:32.800Z,57.75
2023-05-15T23:52:19.513Z,56.95
2023-05-15T23:55:07.576Z,57.41
2023-05-15T23:57:54.437Z,57.13
